createdAt,value
2019-04-07T00:01:28.406Z,86.11
2019-04-07T00:03:58.997Z,86.21
2019-04-07T00:06:29.452Z,86.54
2019-04-07T00:08:59.407Z,86.36
2019-04-07T00:11:29.139Z,86.64
2019-04-07T00:13:58.953Z,86.92
2019-04-07T00:16:28.703Z,87.29
2019-04-07T00:18:58.580Z,87.02
2019-04-07T00:21:28.379Z,87.41
2019-04-07T00:23:58.284Z,87.37
2019-04-07T00:26:28.133Z,87.34
2019-04-07T00:28:58.648Z,87.52
2019-04-07T00:31:28.926Z,87.90
2019-04-07T00:33:59.336Z,88.07
2019-04-07T00:36:29.120Z,88.49
2019-04-07T00:38:59.452Z,88.49
2019-04-07T00:41:29.873Z,88.29
2019-04-07T00:44:00.013Z,88.06
2019-04-07T00:46:29.777Z,88.26
2019-04-07T00:48:59.619Z,88.44
2019-04-07T00:51:29.377Z,88.45
2019-04-07T00:53:59.737Z,88.45
2019-04-07T00:56:30.054Z,88.48
2019-04-07T00:58:59.990Z,88.35
2019-04-07T01:01:29.807Z,88.46
2019-04-07T01:03:59.893Z,88.61
2019-04-07T01:06:29.789Z,88.73
2019-04-07T01:09:00.248Z,88.80
2019-04-07T01:11:30.032Z,88.41
2019-04-07T01:13:59.808Z,88.66
2019-04-07T01:16:30.061Z,89.01
2019-04-07T01:18:59.942Z,89.03
2019-04-07T01:21:30.302Z,89.25
2019-04-07T01:24:00.132Z,89.33
2019-04-07T01:26:29.891Z,89.41
2019-04-07T01:29:00.212Z,89.46
2019-04-07T01:31:29.986Z,89.44
2019-04-07T01:33:59.755Z,89.28
2019-04-07T01:36:29.567Z,89.09
2019-04-07T01:38:59.975Z,89.16
2019-04-07T01:41:37.410Z,88.90
2019-04-07T01:44:24.376Z,88.81
2019-04-07T01:46:56.052Z,88.37
2019-04-07T01:49:45.440Z,88.74
2019-04-07T01:52:17.311Z,88.71
2019-04-07T01:55:04.902Z,88.70
2019-04-07T01:57:36.417Z,88.78
2019-04-07T02:00:11.581Z,88.99
2019-04-07T02:02:42.952Z,89.03
2019-04-07T02:05:30.895Z,89.06
2019-04-07T02:08:11.152Z,89.08
2019-04-07T02:10:48.476Z,89.29
2019-04-07T02:13:20.717Z,89.62
2019-04-07T02:16:09.200Z,89.68
2019-04-07T02:18:40.727Z,89.64
2019-04-07T02:21:23.915Z,89.47
2019-04-07T02:23:55.947Z,89.35
2019-04-07T02:26:30.170Z,90.06
2019-04-07T02:29:08.023Z,89.94
2019-04-07T02:31:42.364Z,89.98
2019-04-07T02:34:20.700Z,90.08
2019-04-07T02:37:08.552Z,90.23
2019-04-07T02:39:40.740Z,90.02
2019-04-07T02:42:25.083Z,90.18
2019-04-07T02:45:09.077Z,90.40
2019-04-07T02:47:43.461Z,90.57
2019-04-07T02:50:18.021Z,90.55
2019-04-07T02:53:07.633Z,90.32
2019-04-07T02:55:55.418Z,90.42
2019-04-07T02:58:32.851Z,90.30
2019-04-07T03:01:04.400Z,90.11
2019-04-07T03:03:51.138Z,90.50
2019-04-07T03:06:40.432Z,90.46
2019-04-07T03:09:11.007Z,90.35
2019-04-07T03:11:42.831Z,90.30
2019-04-07T03:14:14.454Z,90.06
2019-04-07T03:17:02.408Z,90.01
2019-04-07T03:19:46.740Z,90.17
2019-04-07T03:22:21.097Z,90.30
2019-04-07T03:25:08.812Z,90.29
2019-04-07T03:27:57.297Z,90.30
2019-04-07T03:30:45.346Z,90.49
2019-04-07T03:33:22.689Z,90.34
2019-04-07T03:36:01.769Z,90.31
2019-04-07T03:38:41.060Z,90.54
2019-04-07T03:41:29.006Z,90.30
2019-04-07T03:44:07.713Z,90.05
2019-04-07T03:46:48.237Z,89.94
2019-04-07T03:49:20.083Z,90.16
2019-04-07T03:52:04.676Z,90.46
2019-04-07T03:54:46.555Z,90.40
2019-04-07T03:57:18.077Z,90.89
2019-04-07T04:00:05.978Z,91.23
2019-04-07T04:02:41.001Z,91.22
2019-04-07T04:05:18.942Z,91.24
2019-04-07T04:07:50.422Z,91.25
2019-04-07T04:10:24.527Z,91.26
2019-04-07T04:12:56.599Z,91.11
2019-04-07T04:15:40.294Z,90.88
2019-04-07T04:18:10.091Z,91.39
2019-04-07T04:20:40.802Z,91.49
2019-04-07T04:23:11.619Z,91.56
2019-04-07T04:25:42.904Z,91.69
2019-04-07T04:28:12.945Z,91.75
2019-04-07T04:30:42.693Z,91.86
2019-04-07T04:33:12.568Z,91.85
2019-04-07T04:35:42.839Z,91.79
2019-04-07T04:38:12.664Z,91.53
2019-04-07T04:40:42.772Z,91.57
2019-04-07T04:43:13.744Z,91.77
2019-04-07T04:45:43.800Z,91.68
2019-04-07T04:48:13.784Z,91.00
2019-04-07T04:50:44.001Z,91.56
2019-04-07T04:53:13.897Z,92.12
2019-04-07T04:55:43.965Z,91.89
2019-04-07T04:58:13.847Z,91.80
2019-04-07T05:00:44.541Z,91.68
2019-04-07T05:03:14.973Z,90.90
2019-04-07T05:05:45.670Z,91.07
2019-04-07T05:08:16.213Z,91.48
2019-04-07T05:10:46.012Z,91.84
2019-04-07T05:13:16.022Z,91.82
2019-04-07T05:15:45.981Z,91.25
2019-04-07T05:18:16.578Z,90.65
2019-04-07T05:20:46.424Z,90.55
2019-04-07T05:23:16.258Z,91.00
2019-04-07T05:25:45.991Z,90.91
2019-04-07T05:28:15.758Z,90.86
2019-04-07T05:30:46.898Z,90.71
2019-04-07T05:33:16.701Z,90.46
2019-04-07T05:35:46.434Z,90.27
2019-04-07T05:38:16.316Z,90.24
2019-04-07T05:40:46.300Z,90.14
2019-04-07T05:43:16.198Z,90.22
2019-04-07T05:45:46.400Z,90.17
2019-04-07T05:48:18.513Z,89.77
2019-04-07T05:50:48.740Z,89.71
2019-04-07T05:53:19.016Z,89.39
2019-04-07T05:55:50.094Z,88.58
2019-04-07T05:58:21.180Z,88.77
2019-04-07T06:00:50.939Z,88.28
2019-04-07T06:03:20.783Z,88.22
2019-04-07T06:05:51.303Z,87.25
2019-04-07T06:08:29.454Z,87.10
2019-04-07T06:10:56.817Z,86.97
2019-04-07T06:13:24.735Z,85.02
2019-04-07T06:15:54.982Z,80.32
2019-04-07T06:18:24.953Z,74.99
2019-04-07T06:20:54.766Z,71.32
2019-04-07T06:23:26.006Z,70.10
2019-04-07T06:25:58.984Z,68.95
2019-04-07T06:28:28.136Z,67.65
2019-04-07T06:31:00.263Z,64.66
2019-04-07T06:33:29.846Z,65.26
2019-04-07T06:36:00.450Z,65.25
2019-04-07T06:38:34.172Z,63.41
2019-04-07T06:41:02.999Z,64.10
2019-04-07T06:43:35.171Z,64.21
2019-04-07T06:46:27.071Z,62.69
2019-04-07T06:49:11.273Z,63.29
2019-04-07T06:51:55.712Z,63.06
2019-04-07T06:54:37.848Z,64.36
2019-04-07T06:57:25.503Z,66.03
2019-04-07T07:00:02.532Z,66.94
2019-04-07T07:02:36.838Z,67.41
2019-04-07T07:05:14.418Z,68.81
2019-04-07T07:07:49.749Z,71.38
2019-04-07T07:10:29.064Z,73.03
2019-04-07T07:13:02.868Z,73.12
2019-04-07T07:15:49.449Z,74.12
2019-04-07T07:18:22.911Z,74.83
2019-04-07T07:20:53.918Z,73.12
2019-04-07T07:23:28.630Z,74.21
2019-04-07T07:26:00.883Z,74.26
2019-04-07T07:28:29.945Z,72.88
2019-04-07T07:31:00.076Z,72.41
2019-04-07T07:33:29.810Z,73.58
2019-04-07T07:35:59.684Z,72.47
2019-04-07T07:38:32.115Z,72.62
2019-04-07T07:41:02.648Z,70.43
2019-04-07T07:43:32.499Z,70.37
2019-04-07T07:46:03.096Z,70.21
2019-04-07T07:48:32.935Z,69.73
2019-04-07T07:51:03.978Z,70.29
2019-04-07T07:53:33.878Z,67.29
2019-04-07T07:56:08.436Z,67.79
2019-04-07T07:58:35.542Z,66.99
2019-04-07T08:01:05.536Z,67.04
2019-04-07T08:03:36.043Z,67.30
2019-04-07T08:06:08.248Z,66.62
2019-04-07T08:08:37.999Z,66.44
2019-04-07T08:11:07.749Z,66.46
2019-04-07T08:13:43.528Z,65.59
2019-04-07T08:16:09.759Z,66.01
2019-04-07T08:18:43.525Z,63.90
2019-04-07T08:21:12.477Z,63.05
2019-04-07T08:23:44.607Z,63.79
2019-04-07T08:26:14.670Z,63.45
2019-04-07T08:28:45.053Z,62.55
2019-04-07T08:31:17.711Z,62.16
2019-04-07T08:33:48.178Z,61.86
2019-04-07T08:36:18.301Z,60.87
2019-04-07T08:38:51.761Z,60.45
2019-04-07T08:41:19.544Z,60.64
2019-04-07T08:43:53.242Z,59.45
2019-04-07T08:46:20.731Z,57.54
2019-04-07T08:48:54.270Z,57.58
2019-04-07T08:51:24.208Z,56.40
2019-04-07T08:53:57.441Z,59.71
2019-04-07T08:56:27.771Z,58.53
2019-04-07T08:58:57.930Z,59.88
2019-04-07T09:01:29.615Z,60.07
2019-04-07T09:03:59.833Z,55.46
2019-04-07T09:06:30.381Z,54.59
2019-04-07T09:09:00.424Z,56.03
2019-04-07T09:11:30.412Z,61.60
2019-04-07T09:14:00.271Z,61.72
2019-04-07T09:16:34.408Z,61.65
2019-04-07T09:19:23.923Z,55.69
2019-04-07T09:22:10.553Z,55.11
2019-04-07T09:24:45.119Z,52.98
2019-04-07T09:27:19.397Z,54.52
2019-04-07T09:30:10.082Z,55.02
2019-04-07T09:32:41.673Z,55.59
2019-04-07T09:35:29.782Z,55.86
2019-04-07T09:38:01.974Z,56.18
2019-04-07T09:40:39.385Z,57.23
2019-04-07T09:43:13.999Z,56.33
2019-04-07T09:45:52.901Z,54.56
2019-04-07T09:48:33.516Z,54.00
2019-04-07T09:51:20.926Z,55.81
2019-04-07T09:53:52.323Z,55.60
2019-04-07T09:56:33.645Z,56.65
2019-04-07T09:59:20.330Z,56.96
2019-04-07T10:02:00.933Z,57.39
2019-04-07T10:04:38.538Z,59.17
2019-04-07T10:07:25.867Z,55.94
2019-04-07T10:10:12.363Z,57.55
2019-04-07T10:12:39.272Z,59.68
2019-04-07T10:15:27.215Z,59.10
2019-04-07T10:17:58.809Z,57.15
2019-04-07T10:20:48.002Z,55.77
2019-04-07T10:23:21.982Z,56.90
2019-04-07T10:25:56.154Z,58.14
2019-04-07T10:28:33.479Z,55.43
2019-04-07T10:31:21.006Z,57.41
2019-04-07T10:33:56.258Z,57.46
2019-04-07T10:36:40.666Z,59.19
2019-04-07T10:39:27.558Z,57.72
2019-04-07T10:42:05.464Z,57.28
2019-04-07T10:44:43.389Z,57.82
2019-04-07T10:47:18.378Z,58.40
2019-04-07T10:50:06.215Z,57.89
2019-04-07T10:52:51.325Z,58.24
2019-04-07T10:55:22.723Z,58.80
2019-04-07T10:58:10.614Z,58.25
2019-04-07T11:00:50.648Z,60.68
2019-04-07T11:03:32.948Z,58.73
2019-04-07T11:06:13.762Z,58.99
2019-04-07T11:08:45.545Z,57.99
2019-04-07T11:11:23.176Z,59.45
2019-04-07T11:14:04.613Z,59.20
2019-04-07T11:16:45.278Z,57.97
2019-04-07T11:19:19.899Z,58.41
2019-04-07T11:21:51.698Z,58.75
2019-04-07T11:24:23.947Z,58.37
2019-04-07T11:26:55.911Z,59.54
2019-04-07T11:29:40.043Z,58.58
2019-04-07T11:32:26.989Z,58.74
2019-04-07T11:34:58.548Z,58.49
2019-04-07T11:37:36.463Z,58.71
2019-04-07T11:40:14.599Z,59.65
2019-04-07T11:42:49.004Z,58.62
2019-04-07T11:45:36.753Z,57.83
2019-04-07T11:48:25.830Z,59.22
2019-04-07T11:51:03.484Z,58.70
2019-04-07T11:53:39.403Z,59.19
2019-04-07T11:56:20.697Z,58.86
2019-04-07T11:59:09.130Z,59.24
2019-04-07T12:01:49.717Z,58.85
2019-04-07T12:04:38.575Z,58.47
2019-04-07T12:07:20.238Z,58.06
2019-04-07T12:09:58.457Z,55.83
2019-04-07T12:12:47.383Z,55.19
2019-04-07T12:15:26.873Z,54.05
2019-04-07T12:18:00.327Z,51.33
2019-04-07T12:20:48.315Z,51.29
2019-04-07T12:23:23.322Z,50.50
2019-04-07T12:25:52.967Z,52.31
2019-04-07T12:28:33.415Z,52.70
2019-04-07T12:31:05.385Z,50.89
2019-04-07T12:33:52.781Z,50.25
2019-04-07T12:36:30.222Z,49.84
2019-04-07T12:38:57.570Z,48.91
2019-04-07T12:41:35.774Z,51.70
2019-04-07T12:44:10.471Z,50.31
2019-04-07T12:46:41.890Z,51.07
2019-04-07T12:49:19.191Z,51.00
2019-04-07T12:51:55.878Z,50.09
2019-04-07T12:54:26.737Z,49.28
2019-04-07T12:57:06.237Z,50.34
2019-04-07T12:59:51.384Z,47.54
2019-04-07T13:02:25.845Z,48.10
2019-04-07T13:05:07.656Z,47.99
2019-04-07T13:07:51.021Z,48.96
2019-04-07T13:10:34.373Z,48.59
2019-04-07T13:13:06.917Z,47.34
2019-04-07T13:15:57.103Z,48.45
2019-04-07T13:18:31.413Z,48.34
2019-04-07T13:21:04.375Z,48.63
2019-04-07T13:23:38.564Z,47.91
2019-04-07T13:26:16.467Z,48.38
2019-04-07T13:28:50.869Z,49.01
2019-04-07T13:31:22.397Z,47.64
2019-04-07T13:34:01.060Z,49.25
2019-04-07T13:36:41.892Z,49.04
2019-04-07T13:39:36.634Z,47.72
2019-04-07T13:42:07.754Z,48.54
2019-04-07T13:44:48.414Z,48.03
2019-04-07T13:47:23.167Z,47.60
2019-04-07T13:49:57.322Z,49.20
2019-04-07T13:52:27.892Z,48.89
2019-04-07T13:55:07.512Z,49.66
2019-04-07T13:57:40.560Z,49.98
2019-04-07T14:00:17.136Z,48.71
2019-04-07T14:03:04.815Z,49.91
2019-04-07T14:05:38.857Z,48.52
2019-04-07T14:08:10.268Z,49.03
2019-04-07T14:10:58.305Z,49.22
2019-04-07T14:13:40.724Z,50.08
2019-04-07T14:16:17.623Z,50.33
2019-04-07T14:19:07.713Z,50.32
2019-04-07T14:21:39.638Z,49.55
2019-04-07T14:24:13.980Z,50.08
2019-04-07T14:26:48.938Z,50.41
2019-04-07T14:29:20.525Z,49.81
2019-04-07T14:31:55.515Z,49.86
2019-04-07T14:34:27.312Z,49.95
2019-04-07T14:36:59.050Z,49.98
2019-04-07T14:39:39.450Z,50.59
2019-04-07T14:42:16.470Z,50.09
2019-04-07T14:44:51.171Z,49.01
2019-04-07T14:47:32.383Z,49.98
2019-04-07T14:50:13.110Z,49.70
2019-04-07T14:52:44.776Z,49.25
2019-04-07T14:55:34.562Z,49.17
2019-04-07T14:58:19.018Z,48.29
2019-04-07T15:01:01.820Z,49.64
2019-04-07T15:03:28.658Z,49.62
2019-04-07T15:05:59.613Z,49.88
2019-04-07T15:08:34.353Z,49.99
2019-04-07T15:11:24.960Z,49.33
2019-04-07T15:13:58.740Z,48.96
2019-04-07T15:16:26.412Z,49.15
2019-04-07T15:18:56.638Z,49.13
2019-04-07T15:21:27.362Z,50.04
2019-04-07T15:23:57.319Z,50.48
2019-04-07T15:26:29.302Z,50.93
2019-04-07T15:29:02.425Z,50.92
2019-04-07T15:31:30.917Z,50.60
2019-04-07T15:34:00.971Z,51.23
2019-04-07T15:36:32.155Z,51.68
2019-04-07T15:39:02.050Z,52.01
2019-04-07T15:41:32.669Z,52.75
2019-04-07T15:44:06.225Z,52.64
2019-04-07T15:46:34.429Z,53.82
2019-04-07T15:49:06.484Z,53.25
2019-04-07T15:51:36.238Z,53.00
2019-04-07T15:54:06.217Z,53.80
2019-04-07T15:56:36.798Z,53.66
2019-04-07T15:59:07.553Z,53.78
2019-04-07T16:01:38.729Z,54.08
2019-04-07T16:04:09.601Z,54.51
2019-04-07T16:06:39.461Z,54.64
2019-04-07T16:09:16.664Z,55.54
2019-04-07T16:11:41.317Z,55.59
2019-04-07T16:14:13.631Z,55.49
2019-04-07T16:16:42.643Z,56.10
2019-04-07T16:19:17.593Z,56.63
2019-04-07T16:21:44.328Z,57.02
2019-04-07T16:24:14.021Z,56.96
2019-04-07T16:26:44.381Z,56.33
2019-04-07T16:29:17.540Z,56.70
2019-04-07T16:31:46.637Z,56.54
2019-04-07T16:34:16.624Z,56.94
2019-04-07T16:36:46.561Z,56.59
2019-04-07T16:39:16.201Z,56.43
2019-04-07T16:41:48.221Z,56.38
2019-04-07T16:44:17.466Z,56.35
2019-04-07T16:46:47.252Z,56.27
2019-04-07T16:49:18.887Z,56.50
2019-04-07T16:51:49.309Z,57.50
2019-04-07T16:54:28.711Z,57.63
2019-04-07T16:56:58.760Z,57.32
2019-04-07T16:59:28.537Z,57.82
2019-04-07T17:01:59.114Z,57.95
2019-04-07T17:04:29.987Z,57.96
2019-04-07T17:07:04.103Z,57.75
2019-04-07T17:09:33.445Z,58.85
2019-04-07T17:12:03.551Z,59.15
2019-04-07T17:14:36.041Z,58.83
2019-04-07T17:17:05.863Z,58.75
2019-04-07T17:19:35.924Z,59.02
2019-04-07T17:22:05.835Z,59.53
2019-04-07T17:24:35.678Z,59.77
2019-04-07T17:27:09.205Z,60.62
2019-04-07T17:29:37.014Z,61.22
2019-04-07T17:32:08.079Z,62.13
2019-04-07T17:34:41.763Z,62.36
2019-04-07T17:37:09.657Z,63.13
2019-04-07T17:39:57.290Z,63.02
2019-04-07T17:42:28.324Z,61.55
2019-04-07T17:45:03.341Z,61.38
2019-04-07T17:47:36.483Z,62.19
2019-04-07T17:50:12.861Z,62.00
2019-04-07T17:53:00.486Z,62.26
2019-04-07T17:55:34.412Z,62.88
2019-04-07T17:58:22.228Z,63.91
2019-04-07T18:00:59.752Z,64.07
2019-04-07T18:03:31.409Z,64.87
2019-04-07T18:06:16.880Z,65.06
2019-04-07T18:09:03.401Z,65.64
2019-04-07T18:11:32.928Z,66.28
2019-04-07T18:14:16.944Z,66.06
2019-04-07T18:16:54.789Z,66.38
2019-04-07T18:19:33.855Z,67.40
2019-04-07T18:22:23.521Z,67.90
2019-04-07T18:25:04.914Z,68.41
2019-04-07T18:27:36.632Z,68.69
2019-04-07T18:30:21.352Z,69.00
2019-04-07T18:32:55.758Z,68.16
2019-04-07T18:35:30.872Z,67.23
2019-04-07T18:38:17.329Z,67.18
2019-04-07T18:41:10.098Z,66.14
2019-04-07T18:44:00.750Z,66.05
2019-04-07T18:46:29.030Z,66.42
2019-04-07T18:49:03.234Z,67.33
2019-04-07T18:51:50.620Z,68.00
2019-04-07T18:54:22.713Z,68.60
2019-04-07T18:56:58.956Z,69.34
2019-04-07T18:59:35.012Z,68.54
2019-04-07T19:02:23.442Z,67.39
2019-04-07T19:04:58.927Z,68.19
2019-04-07T19:07:41.656Z,68.79
2019-04-07T19:10:29.616Z,69.33
2019-04-07T19:13:14.215Z,69.67
2019-04-07T19:15:47.550Z,69.27
2019-04-07T19:18:27.198Z,68.21
2019-04-07T19:21:18.336Z,68.66
2019-04-07T19:24:10.329Z,68.49
2019-04-07T19:27:11.850Z,68.12
2019-04-07T19:29:43.067Z,69.22
2019-04-07T19:32:21.038Z,70.18
2019-04-07T19:34:53.138Z,70.75
2019-04-07T19:37:26.288Z,71.21
2019-04-07T19:40:10.026Z,71.99
2019-04-07T19:43:01.731Z,71.39
2019-04-07T19:45:33.346Z,70.32
2019-04-07T19:48:19.975Z,71.62
2019-04-07T19:50:58.598Z,72.17
2019-04-07T19:53:45.837Z,72.46
2019-04-07T19:56:19.194Z,72.99
2019-04-07T19:58:53.609Z,72.97
2019-04-07T20:01:27.456Z,73.20
2019-04-07T20:04:05.320Z,73.42
2019-04-07T20:06:39.814Z,72.93
2019-04-07T20:09:12.683Z,73.22
2019-04-07T20:11:48.010Z,73.32
2019-04-07T20:17:17.377Z,74.00
2019-04-07T20:19:55.642Z,74.07
2019-04-07T20:22:43.673Z,74.46
2019-04-07T20:25:21.139Z,74.01
2019-04-07T20:27:56.028Z,74.91
2019-04-07T20:30:45.575Z,75.11
2019-04-07T20:33:29.930Z,75.34
2019-04-07T20:36:02.742Z,75.23
2019-04-07T20:38:34.135Z,75.51
2019-04-07T20:41:10.372Z,75.59
2019-04-07T20:43:55.608Z,75.94
2019-04-07T20:46:36.358Z,75.95
2019-04-07T20:49:20.133Z,76.18
2019-04-07T20:51:58.467Z,76.33
2019-04-07T20:54:35.850Z,75.97
2019-04-07T20:57:19.241Z,75.94
2019-04-07T21:00:05.582Z,76.05
2019-04-07T21:02:37.740Z,77.93
2019-04-07T21:05:12.370Z,78.35
2019-04-07T21:08:01.057Z,78.38
2019-04-07T21:10:41.500Z,78.48
2019-04-07T21:13:30.096Z,79.34
2019-04-07T21:16:08.222Z,79.69
2019-04-07T21:18:56.442Z,79.92
2019-04-07T21:21:34.591Z,80.16
2019-04-07T21:24:06.514Z,79.80
2019-04-07T21:26:37.895Z,79.94
2019-04-07T21:29:16.085Z,80.33
2019-04-07T21:31:47.931Z,80.38
2019-04-07T21:34:20.765Z,80.67
2019-04-07T21:37:01.224Z,80.63
2019-04-07T21:39:33.128Z,81.09
2019-04-07T21:42:05.039Z,81.87
2019-04-07T21:44:42.161Z,80.98
2019-04-07T21:47:29.841Z,81.28
2019-04-07T21:50:18.935Z,81.22
2019-04-07T21:53:06.627Z,80.73
2019-04-07T21:55:43.079Z,80.55
2019-04-07T21:58:14.518Z,81.04
2019-04-07T22:01:05.232Z,81.79
2019-04-07T22:03:52.409Z,82.06
2019-04-07T22:06:26.530Z,82.32
2019-04-07T22:08:58.055Z,81.90
2019-04-07T22:11:30.268Z,82.42
2019-04-07T22:14:00.997Z,82.79
2019-04-07T22:16:32.735Z,83.29
2019-04-07T22:19:02.358Z,82.35
2019-04-07T22:21:32.198Z,83.05
2019-04-07T22:24:03.000Z,83.19
2019-04-07T22:26:33.604Z,82.59
2019-04-07T22:29:05.212Z,82.67
2019-04-07T22:31:36.722Z,82.01
2019-04-07T22:34:06.912Z,82.26
2019-04-07T22:36:36.721Z,82.55
2019-04-07T22:39:07.787Z,83.26
2019-04-07T22:41:41.113Z,83.20
2019-04-07T22:44:09.248Z,83.26
2019-04-07T22:46:39.591Z,82.71
2019-04-07T22:49:09.452Z,82.44
2019-04-07T22:51:43.079Z,82.27
2019-04-07T22:54:16.840Z,82.00
2019-04-07T22:56:46.741Z,82.31
2019-04-07T22:59:17.505Z,82.28
2019-04-07T23:01:47.386Z,82.41
2019-04-07T23:04:18.186Z,82.33
2019-04-07T23:06:48.140Z,82.06
2019-04-07T23:09:17.869Z,82.24
2019-04-07T23:11:48.256Z,82.09
2019-04-07T23:14:18.006Z,82.81
2019-04-07T23:16:48.548Z,82.34
2019-04-07T23:19:18.554Z,82.79
2019-04-07T23:21:49.127Z,83.20
2019-04-07T23:24:19.277Z,83.59
2019-04-07T23:26:49.120Z,83.76
2019-04-07T23:29:20.190Z,83.90
2019-04-07T23:31:49.948Z,84.30
2019-04-07T23:34:19.709Z,84.17
2019-04-07T23:36:49.873Z,84.04
2019-04-07T23:39:19.670Z,84.15
2019-04-07T23:41:49.375Z,84.34
2019-04-07T23:44:19.124Z,84.65
2019-04-07T23:46:48.976Z,84.48
2019-04-07T23:49:19.112Z,84.30
2019-04-07T23:55:10.564Z,84.30
2019-04-07T23:57:40.538Z,85.09
